Time;durP1;ratioP1;P1;durP2;ratioP2;P2;SDS_P1;SDS_P2;PMS_P1;PMS_P2;Temp;Humidity;BMP_temperature;BMP_pressure;BME280_temperature;BME280_humidity;BME280_pressure;Samples;Min_cycle;Max_cycle;Signal;HPM_P1;HPM_P2
2021/01/28 00:02:33;;;;;;;1.50;1.40;;;;;;;1.71;100.00;98776.75;3932813;74;391899;-78
2021/01/28 00:07:56;;;;;;;0.80;0.43;;;;;;;1.70;100.00;98778.69;3933683;74;383587;-79
2021/01/28 00:13:18;;;;;;;1.20;1.10;;;;;;;1.74;100.00;98774.70;3932372;74;395037;-78
2021/01/28 00:18:39;;;;;;;3.53;1.97;;;;;;;1.68;100.00;98763.33;3932668;74;383808;-78
2021/01/28 00:24:00;;;;;;;7.50;2.30;;;;;;;1.68;100.00;98754.42;3932755;74;396095;-78
2021/01/28 00:29:22;;;;;;;0.80;0.50;;;;;;;1.70;100.00;98754.28;3933647;74;383845;-78
2021/01/28 00:34:43;;;;;;;1.43;1.27;;;;;;;1.73;100.00;98747.38;3932251;74;396067;-78
2021/01/28 00:40:06;;;;;;;0.90;0.70;;;;;;;1.70;100.00;98748.06;3933600;74;383608;-78
2021/01/28 00:45:29;;;;;;;1.53;1.43;;;;;;;1.77;100.00;98750.39;3932504;74;392197;-78
2021/01/28 00:50:53;;;;;;;1.37;0.90;;;;;;;1.85;100.00;98730.45;3933004;74;393992;-79
2021/01/28 00:56:14;;;;;;;0.80;0.50;;;;;;;1.79;100.00;98737.28;3933783;74;383585;-78
2021/01/28 01:01:35;;;;;;;1.20;1.10;;;;;;;1.78;100.00;98727.56;3932523;74;391963;-78
2021/01/28 01:06:57;;;;;;;1.73;1.63;;;;;;;1.80;100.00;98718.52;3922359;74;391946;-78
2021/01/28 01:12:18;;;;;;;1.17;0.83;;;;;;;1.89;100.00;98727.27;3893467;75;387833;-78
2021/01/28 01:17:39;;;;;;;1.20;1.03;;;;;;;1.87;100.00;98721.95;3893307;75;391904;-78
2021/01/28 01:23:01;;;;;;;6.67;1.43;;;;;;;1.94;100.00;98708.59;3892275;75;396088;-78
2021/01/28 01:28:22;;;;;;;0.93;0.83;;;;;;;1.98;100.00;98724.36;3893759;74;383577;-79
2021/01/28 01:33:44;;;;;;;7.53;2.90;;;;;;;1.98;100.00;98714.86;3892979;75;389809;-79
2021/01/28 01:39:05;;;;;;;2.17;2.07;;;;;;;1.99;100.00;98704.23;3892707;74;391899;-78
2021/01/28 01:44:26;;;;;;;5.13;1.23;;;;;;;2.00;100.00;98705.81;3893179;74;383833;-78
2021/01/28 01:49:49;;;;;;;2.80;1.73;;;;;;;1.98;100.00;98690.45;3892300;75;396321;-78
2021/01/28 01:55:11;;;;;;;1.83;0.90;;;;;;;1.91;100.00;98684.87;3892933;75;391068;-78
2021/01/28 02:00:32;;;;;;;3.83;1.50;;;;;;;1.98;100.00;98683.67;3892274;74;396106;-78
2021/01/28 02:05:57;;;;;;;1.17;0.67;;;;;;;2.00;100.00;98685.47;3893461;75;387737;-78
2021/01/28 02:11:19;;;;;;;0.80;0.40;;;;;;;1.98;100.00;98680.95;3894742;74;383581;-79
2021/01/28 02:16:49;;;;;;;0.90;0.70;;;;;;;2.04;100.00;98671.41;3893236;75;391903;-78
2021/01/28 02:22:10;;;;;;;1.27;1.00;;;;;;;2.02;100.00;98652.00;3893120;74;396301;-78
2021/01/28 02:27:33;;;;;;;5.53;2.00;;;;;;;2.08;100.00;98626.17;3892310;75;395088;-78
2021/01/28 02:32:54;;;;;;;1.53;1.43;;;;;;;2.11;100.00;98610.52;3893357;74;383581;-78
2021/01/28 02:38:16;;;;;;;0.87;0.73;;;;;;;2.09;100.00;98610.11;3893910;74;383790;-78
2021/01/28 02:43:37;;;;;;;0.87;0.63;;;;;;;2.00;100.00;98595.96;3894092;74;383569;-78
2021/01/28 02:48:58;;;;;;;1.40;1.30;;;;;;;1.92;100.00;98595.59;3893260;75;387758;-78
2021/01/28 02:54:19;;;;;;;0.80;0.50;;;;;;;1.83;100.00;98595.00;3894323;74;383805;-78
2021/01/28 02:59:41;;;;;;;0.80;0.50;;;;;;;1.80;100.00;98588.92;3893671;75;383570;-78
2021/01/28 03:05:02;;;;;;;1.57;1.03;;;;;;;1.78;100.00;98591.19;3893287;75;388015;-78
2021/01/28 03:10:25;;;;;;;1.87;1.17;;;;;;;1.79;100.00;98579.20;3921759;74;387842;-78
2021/01/28 03:15:46;;;;;;;2.63;1.47;;;;;;;1.86;100.00;98586.14;3932936;74;389885;-78
2021/01/28 03:21:08;;;;;;;4.70;4.20;;;;;;;1.94;100.00;98580.53;3931870;74;396088;-78
2021/01/28 03:26:29;;;;;;;1.07;0.97;;;;;;;1.84;100.00;98566.75;3932974;74;387761;-78
2021/01/28 03:31:50;;;;;;;4.83;1.60;;;;;;;1.87;100.00;98551.11;3932640;74;392150;-78
2021/01/28 03:37:11;;;;;;;2.03;1.43;;;;;;;1.87;100.00;98552.46;3931877;74;396346;-78
2021/01/28 03:42:32;;;;;;;1.20;1.03;;;;;;;1.97;100.00;98558.69;3932801;74;394248;-78
2021/01/28 03:47:54;;;;;;;1.73;1.23;;;;;;;1.83;100.00;98555.69;3932792;74;393993;-78
2021/01/28 03:53:16;;;;;;;6.23;1.97;;;;;;;1.81;100.00;98553.89;3932187;74;395050;-78
2021/01/28 03:58:37;;;;;;;2.23;1.63;;;;;;;1.91;100.00;98539.78;3932667;74;393990;-78
2021/01/28 04:03:58;;;;;;;2.83;2.63;;;;;;;1.92;100.00;98536.70;3932436;74;396025;-78
2021/01/28 04:09:19;;;;;;;1.60;0.93;;;;;;;1.89;100.00;98505.44;3933323;74;383785;-78
2021/01/28 04:14:41;;;;;;;2.40;1.33;;;;;;;1.88;100.00;98518.23;3932544;74;393978;-78
2021/01/28 04:20:03;;;;;;;5.63;1.20;;;;;;;1.94;100.00;98521.45;3932259;74;387759;-78
2021/01/28 04:25:24;;;;;;;0.90;0.70;;;;;;;1.91;100.00;98490.38;3933015;74;391859;-78
2021/01/28 04:30:46;;;;;;;3.90;1.57;;;;;;;1.91;100.00;98480.12;3933121;74;383840;-79
2021/01/28 04:36:07;;;;;;;4.47;1.40;;;;;;;1.92;100.00;98484.41;3932316;74;392931;-78
2021/01/28 04:41:31;;;;;;;3.17;1.50;;;;;;;1.88;100.00;98476.20;3932971;74;387998;-78
2021/01/28 04:46:56;;;;;;;1.67;1.57;;;;;;;1.93;100.00;98454.20;3932585;74;392092;-78
2021/01/28 04:52:19;;;;;;;4.27;3.03;;;;;;;1.88;100.00;98441.50;3932301;74;395312;-78
2021/01/28 04:57:40;;;;;;;1.50;1.33;;;;;;;1.95;100.00;98434.86;3933114;74;391895;-78
2021/01/28 05:03:06;;;;;;;1.33;1.23;;;;;;;1.86;100.00;98424.25;3933108;74;385939;-78
2021/01/28 05:08:28;;;;;;;1.47;1.00;;;;;;;1.83;100.00;98416.05;3933397;74;394266;-78
2021/01/28 05:13:49;;;;;;;5.00;2.40;;;;;;;1.77;100.00;98423.67;3932651;74;383588;-78
2021/01/28 05:19:13;;;;;;;1.80;1.70;;;;;;;1.84;100.00;98429.23;3932281;74;393945;-78
2021/01/28 05:24:37;;;;;;;1.20;1.10;;;;;;;1.96;100.00;98411.47;3934670;74;391891;-78
2021/01/28 05:30:01;;;;;;;2.07;1.97;;;;;;;1.85;100.00;98399.63;3934048;74;394040;-78
2021/01/28 05:35:31;;;;;;;5.20;4.23;;;;;;;1.84;100.00;98375.59;3932272;74;396317;-78
2021/01/28 05:40:59;;;;;;;3.23;2.70;;;;;;;1.83;100.00;98371.30;3934025;74;396037;-78
2021/01/28 05:46:31;;;;;;;5.60;1.73;;;;;;;1.81;100.00;98373.59;3934111;74;394005;-78
2021/01/28 05:51:52;;;;;;;2.43;2.33;;;;;;;1.79;100.00;98374.50;3932289;74;395511;-78
2021/01/28 05:57:25;;;;;;;4.40;2.73;;;;;;;1.87;100.00;98368.07;3931715;74;396134;-78
2021/01/28 06:03:17;;;;;;;2.57;2.33;;;;;;;1.80;100.00;98374.17;3906706;74;396139;-79
2021/01/28 06:09:16;;;;;;;2.30;1.47;;;;;;;1.84;100.00;98361.45;3932398;74;393946;-79
2021/01/28 06:14:59;;;;;;;1.20;0.73;;;;;;;1.87;100.00;98353.95;3801028;77;384002;-79
2021/01/28 06:20:57;;;;;;;2.17;1.97;;;;;;;1.86;100.00;98340.19;3797311;76;396198;-78
2021/01/28 06:26:27;;;;;;;7.53;3.83;;;;;;;1.90;100.00;98338.89;3907647;74;396159;-78
2021/01/28 06:32:08;;;;;;;2.77;2.57;;;;;;;1.89;100.00;98321.05;3933710;74;396349;-77
2021/01/28 06:38:07;;;;;;;2.90;2.00;;;;;;;1.99;100.00;98296.82;3923095;74;396363;-78
2021/01/28 06:43:43;;;;;;;9.00;1.63;;;;;;;1.92;100.00;98295.94;3932353;74;396080;-78
2021/01/28 06:49:16;;;;;;;5.13;1.97;;;;;;;1.91;100.00;98279.45;3933295;74;393976;-78
2021/01/28 06:54:43;;;;;;;1.70;1.60;;;;;;;1.89;100.00;98271.69;3933043;74;396045;-78
2021/01/28 07:00:10;;;;;;;4.37;3.03;;;;;;;1.83;100.00;98265.56;3934018;74;396135;-78
2021/01/28 07:05:56;;;;;;;2.90;1.93;;;;;;;1.91;100.00;98271.31;3933523;74;389816;-78
2021/01/28 07:11:26;;;;;;;3.77;1.67;;;;;;;1.89;100.00;98258.13;3933435;74;391895;-78
2021/01/28 07:17:02;;;;;;;13.30;2.87;;;;;;;1.89;100.00;98246.48;3932457;74;397067;-79
2021/01/28 07:22:29;;;;;;;3.83;3.23;;;;;;;1.89;100.00;98242.41;3932943;74;396065;-80
2021/01/28 07:28:15;;;;;;;2.17;2.00;;;;;;;1.91;100.00;98223.27;3934327;74;392125;-81
2021/01/28 07:33:44;;;;;;;2.00;1.90;;;;;;;1.97;100.00;98215.06;3934147;74;396108;-80
2021/01/28 07:39:07;;;;;;;2.23;1.63;;;;;;;1.98;100.00;98203.63;3933462;74;387754;-81
2021/01/28 07:44:31;;;;;;;2.77;2.50;;;;;;;2.00;100.00;98191.27;3934275;74;393966;-82
2021/01/28 07:50:26;;;;;;;3.53;2.00;;;;;;;2.04;100.00;98176.39;3934398;74;391921;-82
2021/01/28 07:55:47;;;;;;;3.07;2.43;;;;;;;2.02;100.00;98171.34;3931959;74;396340;-82
2021/01/28 08:01:14;;;;;;;0.80;0.67;;;;;;;2.08;100.00;98158.27;3933109;74;383569;-82
2021/01/28 08:06:37;;;;;;;4.07;2.23;;;;;;;2.19;100.00;98138.83;3931830;74;394039;-82
2021/01/28 08:11:59;;;;;;;3.83;2.50;;;;;;;2.26;100.00;98145.73;3914175;74;396121;-82
2021/01/28 08:17:25;;;;;;;1.30;1.20;;;;;;;2.32;100.00;98132.81;3893349;75;383798;-82
2021/01/28 08:22:52;;;;;;;1.83;1.10;;;;;;;2.35;100.00;98130.14;3894453;74;396082;-81
2021/01/28 08:28:16;;;;;;;5.30;2.10;;;;;;;2.42;100.00;98124.03;3892705;74;396184;-81
2021/01/28 08:33:40;;;;;;;2.20;2.00;;;;;;;2.45;100.00;98109.73;3892462;75;396168;-81
2021/01/28 08:39:07;;;;;;;1.60;1.50;;;;;;;2.53;100.00;98107.31;3893578;75;392996;-81
2021/01/28 08:44:28;;;;;;;2.10;1.93;;;;;;;2.47;100.00;98086.49;3885915;74;393981;-81
2021/01/28 08:50:09;;;;;;;1.20;0.90;;;;;;;2.53;100.00;98071.44;3893134;75;392920;-81
2021/01/28 08:55:34;;;;;;;0.90;0.70;;;;;;;2.53;100.00;98063.88;3895573;75;389769;-80
2021/01/28 09:01:02;;;;;;;3.10;2.80;;;;;;;2.52;100.00;98061.72;3892301;75;396113;-81
2021/01/28 09:06:23;;;;;;;1.53;1.13;;;;;;;2.57;100.00;98044.33;3892941;74;383834;-81
2021/01/28 09:11:44;;;;;;;3.20;2.13;;;;;;;2.58;100.00;98034.47;3892681;74;396076;-82
2021/01/28 09:17:24;;;;;;;3.73;2.40;;;;;;;2.59;100.00;98023.80;3892823;75;390139;-82
2021/01/28 09:22:46;;;;;;;1.90;1.80;;;;;;;2.58;100.00;98003.26;3892407;75;395023;-82
2021/01/28 09:28:21;;;;;;;2.97;1.43;;;;;;;2.64;100.00;97981.95;3892464;74;396072;-82
2021/01/28 09:33:42;;;;;;;1.47;1.37;;;;;;;2.69;100.00;97978.92;3895456;75;383572;-82
2021/01/28 09:39:22;;;;;;;2.80;1.40;;;;;;;2.72;100.00;97958.59;3892807;75;385904;-82
2021/01/28 09:44:49;;;;;;;1.63;1.53;;;;;;;2.72;100.00;97956.43;3894852;75;387795;-82
2021/01/28 09:50:10;;;;;;;1.63;1.53;;;;;;;2.74;100.00;97950.86;3894605;75;391940;-81
2021/01/28 09:55:35;;;;;;;1.00;0.80;;;;;;;2.75;100.00;97936.09;3893111;75;389769;-81
2021/01/28 10:00:56;;;;;;;1.50;1.40;;;;;;;2.77;100.00;97929.72;3893319;75;383837;-81
2021/01/28 10:06:18;;;;;;;2.53;2.03;;;;;;;2.81;100.00;97922.95;3892125;74;396185;-81
2021/01/28 10:11:40;;;;;;;1.57;1.10;;;;;;;2.90;100.00;97903.84;3893083;74;386140;-81
2021/01/28 10:17:01;;;;;;;1.03;0.93;;;;;;;2.94;100.00;97903.27;3893330;75;390242;-81
2021/01/28 10:22:23;;;;;;;2.33;2.23;;;;;;;2.96;100.00;97894.18;3892244;75;396326;-81
2021/01/28 10:27:44;;;;;;;2.10;2.00;;;;;;;3.06;100.00;97879.09;3892353;75;394996;-81
2021/01/28 10:33:07;;;;;;;2.83;2.73;;;;;;;3.21;100.00;97865.23;3892264;74;396191;-81
2021/01/28 10:38:28;;;;;;;2.13;2.03;;;;;;;3.19;100.00;97843.09;3892671;75;396088;-81
2021/01/28 10:43:49;;;;;;;2.20;2.00;;;;;;;3.31;100.00;97834.61;3892496;75;396088;-80
2021/01/28 10:49:11;;;;;;;3.70;2.27;;;;;;;3.31;100.00;97827.82;3892545;75;396084;-81
2021/01/28 10:54:32;;;;;;;1.53;1.23;;;;;;;3.26;100.00;97806.43;3893160;75;389027;-81
2021/01/28 10:59:54;;;;;;;1.97;1.87;;;;;;;3.30;100.00;97794.41;3892827;75;391903;-82
2021/01/28 11:05:21;;;;;;;1.93;1.60;;;;;;;3.28;100.00;97782.37;3892449;74;396356;-82
2021/01/28 11:10:42;;;;;;;3.17;2.93;;;;;;;3.29;100.00;97758.13;3894888;75;396117;-81
2021/01/28 11:16:03;;;;;;;1.50;1.40;;;;;;;3.28;100.00;97745.70;3892923;74;389032;-82
2021/01/28 11:21:25;;;;;;;2.60;1.70;;;;;;;3.29;100.00;97728.23;3892453;75;396138;-82
2021/01/28 11:26:47;;;;;;;19.43;1.83;;;;;;;3.35;100.00;97713.09;3893593;75;389824;-82
2021/01/28 11:32:08;;;;;;;2.63;2.10;;;;;;;3.38;100.00;97683.21;3892737;75;396076;-81
2021/01/28 11:37:29;;;;;;;2.53;2.43;;;;;;;3.49;100.00;97665.55;3892917;74;396294;-81
2021/01/28 11:42:51;;;;;;;2.97;2.43;;;;;;;3.55;100.00;97665.38;3892669;75;396125;-80
2021/01/28 11:48:12;;;;;;;2.80;2.03;;;;;;;3.65;100.00;97646.92;3892687;74;396085;-80
2021/01/28 11:53:33;;;;;;;1.80;1.70;;;;;;;3.80;100.00;97635.66;3892779;75;391974;-81
2021/01/28 11:58:54;;;;;;;1.10;0.80;;;;;;;3.88;100.00;97631.77;3893483;75;388204;-81
2021/01/28 12:04:16;;;;;;;2.03;1.53;;;;;;;4.03;100.00;97627.29;3892757;75;396173;-81
2021/01/28 12:09:37;;;;;;;1.40;1.30;;;;;;;3.96;100.00;97610.95;3893709;74;383628;-81
2021/01/28 12:14:58;;;;;;;1.40;1.30;;;;;;;3.86;100.00;97610.21;3892892;74;391976;-81
2021/01/28 12:20:22;;;;;;;9.90;1.57;;;;;;;3.92;100.00;97595.04;3893189;74;385932;-81
2021/01/28 12:25:44;;;;;;;3.47;1.17;;;;;;;3.88;100.00;97582.81;3894962;74;395024;-81
2021/01/28 12:31:05;;;;;;;2.70;2.50;;;;;;;4.05;100.00;97567.80;3892657;74;396080;-81
2021/01/28 12:36:26;;;;;;;1.47;1.07;;;;;;;4.04;100.00;97558.08;3892757;74;391927;-82
2021/01/28 12:41:48;;;;;;;14.43;1.27;;;;;;;4.05;100.00;97553.43;3893065;75;387965;-81
2021/01/28 12:47:09;;;;;;;1.77;1.37;;;;;;;4.09;100.00;97540.58;3892448;75;397300;-81
2021/01/28 12:52:31;;;;;;;2.17;1.30;;;;;;;4.06;100.00;97539.42;3892768;75;393950;-81
2021/01/28 12:57:52;;;;;;;2.27;1.00;;;;;;;4.13;100.00;97525.79;3893184;74;391875;-81
2021/01/28 13:03:14;;;;;;;1.23;1.00;;;;;;;4.35;100.00;97509.58;3893244;75;392237;-80
2021/01/28 13:08:35;;;;;;;3.63;1.70;;;;;;;4.57;100.00;97489.23;3892697;75;394201;-79
2021/01/28 13:13:56;;;;;;;1.50;1.40;;;;;;;4.74;100.00;97478.22;3893722;74;392142;-80
2021/01/28 13:19:17;;;;;;;2.20;1.23;;;;;;;4.84;100.00;97476.61;3892935;75;390030;-80
2021/01/28 13:24:39;;;;;;;1.33;1.23;;;;;;;4.80;100.00;97464.38;3893245;75;384828;-80
2021/01/28 13:30:01;;;;;;;1.70;1.60;;;;;;;4.87;100.00;97465.69;3892392;75;397292;-80
2021/01/28 13:35:25;;;;;;;1.87;1.63;;;;;;;4.91;100.00;97467.78;3892578;74;396676;-80
2021/01/28 13:40:46;;;;;;;3.80;3.07;;;;;;;4.77;100.00;97458.93;3892534;74;394975;-80
2021/01/28 13:46:09;;;;;;;1.93;1.83;;;;;;;4.81;100.00;97455.61;3893316;75;387686;-80
2021/01/28 13:51:30;;;;;;;2.40;2.20;;;;;;;4.96;100.00;97449.66;3892474;75;396085;-81
2021/01/28 13:56:51;;;;;;;2.00;1.17;;;;;;;4.86;100.00;97445.64;3892732;74;394042;-80
2021/01/28 14:02:12;;;;;;;1.97;1.20;;;;;;;4.84;100.00;97435.75;3892628;75;397055;-81
2021/01/28 14:07:34;;;;;;;0.90;0.67;;;;;;;4.92;100.00;97426.34;3894045;74;383581;-80
2021/01/28 14:12:55;;;;;;;1.60;1.50;;;;;;;4.79;100.00;97427.42;3892913;74;394241;-80
2021/01/28 14:18:16;;;;;;;1.80;1.70;;;;;;;4.82;100.00;97422.52;3892763;75;388700;-80
2021/01/28 14:23:38;;;;;;;1.70;1.60;;;;;;;4.79;100.00;97427.98;3892859;74;395183;-81
2021/01/28 14:28:59;;;;;;;2.33;1.97;;;;;;;4.81;100.00;97422.33;3892680;74;397031;-81
2021/01/28 14:34:21;;;;;;;1.57;1.47;;;;;;;4.82;100.00;97421.75;3893006;74;388000;-80
2021/01/28 14:39:42;;;;;;;0.90;0.70;;;;;;;4.94;100.00;97422.61;3893749;75;384534;-80
2021/01/28 14:45:06;;;;;;;1.00;0.90;;;;;;;5.01;100.00;97422.55;3893458;74;392892;-79
2021/01/28 14:50:27;;;;;;;1.00;0.90;;;;;;;4.99;100.00;97421.59;3893117;75;391954;-81
2021/01/28 14:55:49;;;;;;;3.63;1.47;;;;;;;4.94;100.00;97429.42;3892791;75;394918;-80
2021/01/28 15:01:12;;;;;;;2.83;2.63;;;;;;;5.02;100.00;97428.19;3892912;75;394927;-80
2021/01/28 15:06:34;;;;;;;2.60;2.40;;;;;;;5.00;100.00;97426.47;3892337;75;397341;-81
2021/01/28 15:11:54;;;;;;;3.63;1.67;;;;;;;4.97;100.00;97429.98;3892710;75;397014;-81
2021/01/28 15:17:16;;;;;;;0.90;0.60;;;;;;;4.93;100.00;97430.59;3922750;74;384868;-81
2021/01/28 15:22:37;;;;;;;0.90;0.77;;;;;;;4.81;100.00;97431.09;3933401;74;392127;-81
2021/01/28 15:27:59;;;;;;;2.10;0.93;;;;;;;4.78;100.00;97435.97;3934937;74;387664;-81
2021/01/28 15:33:20;;;;;;;2.53;2.33;;;;;;;4.76;100.00;97451.96;3932519;74;392936;-80
2021/01/28 15:38:41;;;;;;;11.13;8.30;;;;;;;4.65;100.00;97445.80;3932303;74;390770;-80
2021/01/28 15:44:04;;;;;;;2.53;2.33;;;;;;;4.56;100.00;97450.92;3932182;74;397072;-80
2021/01/28 15:49:25;;;;;;;1.00;0.80;;;;;;;4.54;100.00;97458.70;3932986;74;386655;-81
2021/01/28 15:54:46;;;;;;;1.53;1.07;;;;;;;4.54;100.00;97465.52;3932543;74;393950;-80
2021/01/28 16:00:09;;;;;;;7.57;0.90;;;;;;;4.55;100.00;97464.34;3933317;74;384539;-81
2021/01/28 16:05:30;;;;;;;1.20;1.10;;;;;;;4.48;100.00;97467.71;3932946;74;386633;-80
2021/01/28 16:10:51;;;;;;;1.87;1.07;;;;;;;4.49;100.00;97478.77;3932898;74;389819;-81
2021/01/28 16:16:14;;;;;;;1.00;0.90;;;;;;;4.43;100.00;97487.96;3932578;74;389768;-81
2021/01/28 16:21:35;;;;;;;2.27;1.50;;;;;;;4.41;100.00;97490.30;3932160;74;394273;-81
2021/01/28 16:26:57;;;;;;;1.70;1.03;;;;;;;4.39;100.00;97493.99;3932536;74;387737;-80
2021/01/28 16:32:18;;;;;;;1.20;0.83;;;;;;;4.42;100.00;97486.97;3932930;74;384538;-81
2021/01/28 16:37:39;;;;;;;2.63;1.80;;;;;;;4.41;100.00;97494.37;3933142;74;383572;-81
2021/01/28 16:43:00;;;;;;;1.90;1.77;;;;;;;4.33;100.00;97503.75;3932473;74;396088;-80
2021/01/28 16:48:22;;;;;;;1.37;1.23;;;;;;;4.32;100.00;97515.05;3932696;74;389933;-80
2021/01/28 16:53:43;;;;;;;9.03;1.63;;;;;;;4.49;100.00;97504.62;3932670;74;394049;-81
2021/01/28 16:59:04;;;;;;;2.43;2.23;;;;;;;4.30;100.00;97508.62;3932194;74;396029;-80
2021/01/28 17:04:26;;;;;;;3.43;2.33;;;;;;;4.08;100.00;97506.38;3932028;74;397269;-80
2021/01/28 17:09:47;;;;;;;3.60;1.67;;;;;;;4.15;100.00;97503.05;3932360;74;397278;-81
2021/01/28 17:15:13;;;;;;;1.10;0.90;;;;;;;4.00;100.00;97516.52;3932664;74;388893;-81
2021/01/28 17:20:33;;;;;;;1.97;1.30;;;;;;;3.94;100.00;97517.31;3932753;74;389764;-80
2021/01/28 17:25:54;;;;;;;9.23;1.63;;;;;;;3.93;100.00;97523.91;3932059;74;394048;-80
2021/01/28 17:31:16;;;;;;;2.43;1.20;;;;;;;3.90;100.00;97548.41;3932081;74;392006;-81
2021/01/28 17:36:36;;;;;;;1.00;0.83;;;;;;;3.88;100.00;97550.77;3932581;74;392836;-80
2021/01/28 17:41:59;;;;;;;2.70;1.33;;;;;;;3.93;100.00;97572.31;3932359;74;396400;-80
2021/01/28 17:47:21;;;;;;;4.57;1.30;;;;;;;3.85;100.00;97590.98;3932889;74;390907;-80
2021/01/28 17:52:42;;;;;;;2.40;1.80;;;;;;;3.68;100.00;97598.56;3931814;74;396076;-82
2021/01/28 17:58:05;;;;;;;4.73;1.00;;;;;;;3.62;100.00;97613.13;3932696;74;388738;-82
2021/01/28 18:03:27;;;;;;;2.40;2.20;;;;;;;3.63;100.00;97596.25;3931903;74;394225;-81
2021/01/28 18:08:48;;;;;;;2.10;1.40;;;;;;;3.76;100.00;97608.27;3931775;74;396406;-81
2021/01/28 18:14:11;;;;;;;5.50;1.70;;;;;;;3.88;100.00;97618.77;3932192;74;391856;-81
2021/01/28 18:19:32;;;;;;;1.67;1.57;;;;;;;3.82;100.00;97632.55;3932696;74;391894;-80
2021/01/28 18:24:53;;;;;;;8.40;2.07;;;;;;;3.76;100.00;97640.30;3932066;74;393958;-80
2021/01/28 18:30:15;;;;;;;2.40;1.37;;;;;;;3.81;100.00;97646.73;3932295;74;390849;-80
2021/01/28 18:35:38;;;;;;;1.47;1.30;;;;;;;3.80;100.00;97641.66;3932335;74;392943;-81
2021/01/28 18:40:59;;;;;;;1.20;1.10;;;;;;;3.81;100.00;97664.98;3932844;74;389772;-81
2021/01/28 18:46:21;;;;;;;3.07;2.37;;;;;;;3.89;100.00;97660.52;3932043;74;394270;-80
2021/01/28 18:51:44;;;;;;;14.10;3.83;;;;;;;3.84;100.00;97658.77;3932424;74;396281;-79
2021/01/28 18:57:06;;;;;;;6.20;1.83;;;;;;;3.84;100.00;97668.29;3932144;74;394975;-79
2021/01/28 19:02:27;;;;;;;2.10;1.90;;;;;;;3.87;100.00;97671.60;3932707;74;393982;-80
2021/01/28 19:07:50;;;;;;;3.23;2.93;;;;;;;3.86;100.00;97676.25;3931732;74;396069;-80
2021/01/28 19:13:12;;;;;;;5.60;3.13;;;;;;;3.99;100.00;97678.19;3932157;74;396383;-79
2021/01/28 19:18:33;;;;;;;18.07;3.10;;;;;;;4.17;100.00;97689.05;3910839;74;396332;-80
2021/01/28 19:23:55;;;;;;;5.60;2.73;;;;;;;4.23;100.00;97688.27;3892234;74;396105;-79
2021/01/28 19:29:16;;;;;;;1.43;1.20;;;;;;;4.30;100.00;97695.66;3892986;75;390854;-79
2021/01/28 19:34:37;;;;;;;1.33;0.73;;;;;;;4.21;100.00;97706.92;3893086;74;394208;-79
2021/01/28 19:39:58;;;;;;;2.47;2.27;;;;;;;4.07;100.00;97720.55;3892579;75;396416;-79
2021/01/28 19:45:21;;;;;;;1.93;1.00;;;;;;;4.06;100.00;97729.11;3892704;75;392136;-79
2021/01/28 19:50:42;;;;;;;1.27;1.07;;;;;;;4.24;100.00;97742.90;3893092;75;391924;-79
2021/01/28 19:56:04;;;;;;;1.13;1.03;;;;;;;4.31;100.00;97746.20;3893229;75;392149;-80
2021/01/28 20:01:25;;;;;;;1.60;1.33;;;;;;;4.37;100.00;97737.83;3893084;75;383545;-79
2021/01/28 20:06:46;;;;;;;1.30;0.80;;;;;;;4.47;100.00;97745.98;3893488;75;388735;-80
2021/01/28 20:12:08;;;;;;;3.23;0.93;;;;;;;4.60;100.00;97754.52;3893133;74;387791;-80
2021/01/28 20:17:30;;;;;;;1.23;1.13;;;;;;;4.74;100.00;97758.76;3893505;74;383802;-80
2021/01/28 20:22:52;;;;;;;1.47;1.37;;;;;;;4.79;100.00;97767.11;3892763;75;392132;-80
2021/01/28 20:28:13;;;;;;;1.70;1.60;;;;;;;4.90;100.00;97775.45;3892696;74;396026;-80
2021/01/28 20:33:35;;;;;;;1.00;0.90;;;;;;;4.92;100.00;97779.16;3892902;75;391954;-80
2021/01/28 20:38:56;;;;;;;1.53;1.43;;;;;;;5.05;100.00;97784.38;3893362;74;383573;-81
2021/01/28 20:44:17;;;;;;;4.10;1.10;;;;;;;5.08;100.00;97793.13;3893213;75;386687;-80
2021/01/28 20:49:38;;;;;;;2.03;1.60;;;;;;;5.34;100.00;97796.72;3892967;75;390746;-80
2021/01/28 20:55:00;;;;;;;1.63;1.37;;;;;;;5.37;100.00;97807.60;3892566;75;394928;-80
2021/01/28 21:00:21;;;;;;;1.20;1.00;;;;;;;5.36;100.00;97818.34;3893075;75;388673;-81
2021/01/28 21:05:42;;;;;;;1.00;0.60;;;;;;;5.45;100.00;97803.70;3893471;74;386573;-80
2021/01/28 21:11:05;;;;;;;6.00;1.23;;;;;;;5.51;100.00;97809.70;3892776;75;390743;-79
2021/01/28 21:16:26;;;;;;;1.77;0.80;;;;;;;5.58;100.00;97809.66;3892901;74;394005;-79
2021/01/28 21:21:47;;;;;;;2.43;2.23;;;;;;;5.48;100.00;97815.16;3930340;74;394994;-80
2021/01/28 21:27:08;;;;;;;1.67;1.57;;;;;;;5.34;100.00;97820.69;3932490;74;393178;-81
2021/01/28 21:32:30;;;;;;;5.97;3.23;;;;;;;4.99;100.00;97824.87;3931908;74;397055;-81
2021/01/28 21:37:51;;;;;;;2.90;2.70;;;;;;;4.87;100.00;97838.13;3931911;74;397017;-80
2021/01/28 21:43:12;;;;;;;4.80;2.97;;;;;;;4.75;100.00;97841.27;3931953;74;397059;-81
2021/01/28 21:48:33;;;;;;;2.43;1.80;;;;;;;4.67;100.00;97830.19;3931843;74;396993;-81
2021/01/28 21:53:55;;;;;;;3.20;3.00;;;;;;;4.54;100.00;97820.84;3931996;74;396312;-80
2021/01/28 21:59:17;;;;;;;1.73;1.63;;;;;;;4.60;100.00;97820.66;3932219;74;397441;-80
2021/01/28 22:04:38;;;;;;;2.77;2.57;;;;;;;4.52;100.00;97826.49;3931925;74;397059;-80
2021/01/28 22:10:01;;;;;;;1.70;1.10;;;;;;;4.47;100.00;97834.46;3932317;74;392887;-81
2021/01/28 22:15:23;;;;;;;9.90;3.03;;;;;;;4.46;100.00;97838.34;3932597;74;397117;-81
2021/01/28 22:20:45;;;;;;;3.67;1.43;;;;;;;4.33;100.00;97840.48;3932620;74;394961;-81
2021/01/28 22:26:07;;;;;;;3.80;2.83;;;;;;;4.29;100.00;97841.08;3932647;74;396050;-81
2021/01/28 22:31:28;;;;;;;3.50;1.20;;;;;;;4.21;100.00;97841.64;3933185;74;384564;-81
2021/01/28 22:36:50;;;;;;;1.30;0.97;;;;;;;4.15;100.00;97836.39;3933173;74;384555;-82
2021/01/28 22:42:11;;;;;;;2.13;1.30;;;;;;;4.07;100.00;97834.83;3932531;74;396199;-81
2021/01/28 22:47:33;;;;;;;1.43;1.33;;;;;;;4.05;100.00;97849.98;3932851;74;384546;-81
2021/01/28 22:52:54;;;;;;;1.80;1.23;;;;;;;3.97;100.00;97842.38;3932540;74;390830;-80
2021/01/28 22:58:16;;;;;;;2.30;1.90;;;;;;;3.96;100.00;97840.82;3932053;74;395033;-81
2021/01/28 23:03:39;;;;;;;1.93;1.20;;;;;;;3.98;100.00;97848.62;3932731;74;394022;-81
2021/01/28 23:09:00;;;;;;;1.70;1.50;;;;;;;3.95;100.00;97852.89;3932546;74;388786;-81
2021/01/28 23:14:22;;;;;;;4.37;1.70;;;;;;;3.95;100.00;97859.70;3932686;74;390831;-81
2021/01/28 23:19:43;;;;;;;1.53;1.13;;;;;;;3.95;100.00;97862.41;3932781;74;393993;-80
2021/01/28 23:25:07;;;;;;;1.10;0.80;;;;;;;4.01;100.00;97860.86;3932586;74;392987;-80
2021/01/28 23:30:29;;;;;;;3.13;1.33;;;;;;;3.94;100.00;97857.34;3932919;74;384498;-80
2021/01/28 23:35:51;;;;;;;1.00;0.90;;;;;;;3.97;100.00;97854.63;3932908;74;391910;-81
2021/01/28 23:41:12;;;;;;;2.60;1.90;;;;;;;3.94;100.00;97852.69;3931833;74;394357;-81
2021/01/28 23:46:33;;;;;;;3.17;2.93;;;;;;;3.92;100.00;97841.21;3932283;74;391918;-81
2021/01/28 23:51:54;;;;;;;2.63;2.10;;;;;;;3.90;100.00;97829.93;3932185;74;397051;-80
2021/01/28 23:57:15;;;;;;;1.27;1.17;;;;;;;3.86;100.00;97814.20;3933031;74;383855;-80
